Time;durP1;ratioP1;P1;durP2;ratioP2;P2;SDS_P1;SDS_P2;PMS_P1;PMS_P2;Temp;Humidity;BMP_temperature;BMP_pressure;BME280_temperature;BME280_humidity;BME280_pressure;Samples;Min_cycle;Max_cycle;Signal;HPM_P1;HPM_P2
2022/05/23 00:00:19;;;;;;;2.23;2.13;;;;;;;;;;5036104;28;20946;-65
2022/05/23 00:02:46;;;;;;;2.70;2.60;;;;;;;;;;5035927;28;20411;-66
2022/05/23 00:05:12;;;;;;;2.57;2.50;;;;;;;;;;5035862;28;20953;-66
2022/05/23 00:07:40;;;;;;;2.67;2.57;;;;;;;;;;5035865;28;20766;-65
2022/05/23 00:10:07;;;;;;;2.20;2.10;;;;;;;;;;5035830;28;20762;-66
2022/05/23 00:12:36;;;;;;;3.60;2.60;;;;;;;;;;5035760;28;20933;-65
2022/05/23 00:15:02;;;;;;;2.90;2.70;;;;;;;;;;5035703;28;20411;-65
2022/05/23 00:17:28;;;;;;;2.43;2.33;;;;;;;;;;5035697;28;20407;-65
2022/05/23 00:19:54;;;;;;;3.40;1.97;;;;;;;;;;5035628;28;20393;-65
2022/05/23 00:22:20;;;;;;;3.03;2.83;;;;;;;;;;5035586;28;20403;-65
2022/05/23 00:24:46;;;;;;;1.90;1.90;;;;;;;;;;5035728;28;20478;-66
2022/05/23 00:27:14;;;;;;;2.53;2.40;;;;;;;;;;5035607;28;20482;-66
2022/05/23 00:29:40;;;;;;;2.80;2.70;;;;;;;;;;5035728;28;20506;-65
2022/05/23 00:37:36;;;;;;;2.67;2.57;;;;;;;;;;5035334;28;20390;-66
2022/05/23 00:40:03;;;;;;;2.67;2.67;;;;;;;;;;5035488;28;20400;-65
2022/05/23 00:45:15;;;;;;;2.93;2.80;;;;;;;;;;5035247;28;20644;-67
2022/05/23 00:47:42;;;;;;;2.80;2.70;;;;;;;;;;5035158;28;20435;-65
2022/05/23 00:50:08;;;;;;;2.57;2.47;;;;;;;;;;5035135;28;20399;-66
2022/05/23 00:52:36;;;;;;;2.70;2.53;;;;;;;;;;5035027;28;20403;-66
2022/05/23 00:55:06;;;;;;;2.90;2.80;;;;;;;;;;5034983;28;20396;-65
2022/05/23 00:57:34;;;;;;;4.10;2.90;;;;;;;;;;5034926;28;20403;-67
2022/05/23 01:00:00;;;;;;;2.90;2.57;;;;;;;;;;5034923;28;20458;-67
2022/05/23 01:02:27;;;;;;;5.03;2.80;;;;;;;;;;5034732;28;20462;-65
2022/05/23 01:04:53;;;;;;;3.00;2.80;;;;;;;;;;5034740;28;20470;-65
2022/05/23 01:07:19;;;;;;;2.80;2.70;;;;;;;;;;5034744;28;20482;-65
2022/05/23 01:09:45;;;;;;;3.30;3.00;;;;;;;;;;5034696;28;20908;-65
2022/05/23 01:12:11;;;;;;;2.97;2.70;;;;;;;;;;5034613;28;20480;-65
2022/05/23 01:14:47;;;;;;;3.00;2.70;;;;;;;;;;5034558;28;20414;-65
2022/05/23 01:17:13;;;;;;;3.23;2.93;;;;;;;;;;5034575;28;20428;-65
2022/05/23 01:19:39;;;;;;;2.90;2.80;;;;;;;;;;5034602;28;20457;-65
2022/05/23 01:22:19;;;;;;;3.27;3.00;;;;;;;;;;5034513;28;20403;-64
2022/05/23 01:24:48;;;;;;;2.70;2.57;;;;;;;;;;5034366;28;20473;-65
2022/05/23 01:27:15;;;;;;;3.37;2.43;;;;;;;;;;5034412;28;20399;-65
2022/05/23 01:29:44;;;;;;;2.83;2.70;;;;;;;;;;5034342;28;20870;-65
2022/05/23 01:32:11;;;;;;;5.40;3.17;;;;;;;;;;5034307;28;20403;-65
2022/05/23 01:34:37;;;;;;;3.90;2.90;;;;;;;;;;5034333;28;20415;-65
2022/05/23 01:37:03;;;;;;;3.40;3.10;;;;;;;;;;5034208;28;20823;-65
2022/05/23 01:39:29;;;;;;;2.70;2.60;;;;;;;;;;5034169;28;20403;-65
2022/05/23 01:41:56;;;;;;;2.70;2.60;;;;;;;;;;5034088;28;20777;-65
2022/05/23 01:44:22;;;;;;;2.30;2.20;;;;;;;;;;5033978;28;20546;-64
2022/05/23 01:46:48;;;;;;;3.00;2.80;;;;;;;;;;5034047;28;20840;-64
2022/05/23 01:49:14;;;;;;;2.97;2.80;;;;;;;;;;5033946;28;20461;-66
2022/05/23 01:51:40;;;;;;;4.50;3.10;;;;;;;;;;5033860;28;20417;-66
2022/05/23 01:54:06;;;;;;;2.47;2.37;;;;;;;;;;5033645;28;20403;-65
2022/05/23 01:56:32;;;;;;;3.73;2.80;;;;;;;;;;5033874;28;20396;-65
2022/05/23 02:01:43;;;;;;;2.40;2.30;;;;;;;;;;5033839;28;20473;-65
2022/05/23 02:04:09;;;;;;;2.60;2.47;;;;;;;;;;5016070;28;20466;-65
2022/05/23 02:06:34;;;;;;;3.30;3.00;;;;;;;;;;5033741;28;20407;-65
2022/05/23 02:09:00;;;;;;;4.97;2.80;;;;;;;;;;5033759;28;20445;-65
2022/05/23 02:11:26;;;;;;;2.90;2.73;;;;;;;;;;5033670;28;20408;-65
2022/05/23 02:13:52;;;;;;;6.93;3.13;;;;;;;;;;5033679;28;20392;-66
2022/05/23 02:16:24;;;;;;;3.20;3.00;;;;;;;;;;5033641;28;20803;-65
2022/05/23 02:18:50;;;;;;;4.63;3.20;;;;;;;;;;5033523;28;20427;-65
2022/05/23 02:21:17;;;;;;;3.10;2.83;;;;;;;;;;5033557;28;20400;-65
2022/05/23 02:23:43;;;;;;;5.57;2.97;;;;;;;;;;5033474;28;20395;-65
2022/05/23 02:26:09;;;;;;;3.47;3.20;;;;;;;;;;5033484;28;20504;-65
2022/05/23 02:28:35;;;;;;;2.73;2.63;;;;;;;;;;5033693;28;20414;-65
2022/05/23 02:31:01;;;;;;;3.50;3.30;;;;;;;;;;5033715;28;20490;-64
2022/05/23 02:33:27;;;;;;;3.90;3.60;;;;;;;;;;5033465;28;20407;-64
2022/05/23 02:35:53;;;;;;;4.20;3.73;;;;;;;;;;5033437;28;20427;-65
2022/05/23 02:38:19;;;;;;;4.03;3.63;;;;;;;;;;5033399;28;20400;-65
2022/05/23 02:40:45;;;;;;;9.03;3.27;;;;;;;;;;5033421;28;20411;-65
2022/05/23 02:43:11;;;;;;;3.77;3.47;;;;;;;;;;5033385;28;20406;-65
2022/05/23 02:45:41;;;;;;;6.53;3.07;;;;;;;;;;5015567;28;21018;-65
2022/05/23 02:48:07;;;;;;;3.40;3.20;;;;;;;;;;5033334;28;20396;-66
2022/05/23 02:50:34;;;;;;;3.90;3.20;;;;;;;;;;5033283;28;20507;-66
2022/05/23 02:53:00;;;;;;;3.67;3.37;;;;;;;;;;5033278;28;20940;-65
2022/05/23 02:55:26;;;;;;;3.37;3.17;;;;;;;;;;5033249;28;20407;-65
2022/05/23 02:57:52;;;;;;;3.43;3.17;;;;;;;;;;5033250;28;20395;-66
2022/05/23 03:00:18;;;;;;;3.70;3.37;;;;;;;;;;5033130;28;20410;-66
2022/05/23 03:03:02;;;;;;;3.33;3.10;;;;;;;;;;5032974;28;20473;-67
2022/05/23 03:05:33;;;;;;;3.53;3.30;;;;;;;;;;5033366;28;20512;-66
2022/05/23 03:07:59;;;;;;;3.00;2.90;;;;;;;;;;5037256;28;20433;-67
2022/05/23 03:10:26;;;;;;;3.57;2.90;;;;;;;;;;5036970;28;20395;-68
2022/05/23 03:12:52;;;;;;;4.47;3.10;;;;;;;;;;5036861;28;20403;-67
2022/05/23 03:15:18;;;;;;;4.07;3.43;;;;;;;;;;5036924;28;20465;-67
2022/05/23 03:17:44;;;;;;;3.60;3.10;;;;;;;;;;5036853;28;20841;-68
2022/05/23 03:20:10;;;;;;;3.33;3.13;;;;;;;;;;5036837;28;20445;-67
2022/05/23 03:28:05;;;;;;;3.50;3.30;;;;;;;;;;5036669;28;20457;-67
2022/05/23 03:30:32;;;;;;;3.43;3.17;;;;;;;;;;5036597;28;20415;-67
2022/05/23 03:32:58;;;;;;;3.33;2.70;;;;;;;;;;5036603;28;20391;-67
2022/05/23 03:35:24;;;;;;;5.07;2.60;;;;;;;;;;5036431;28;20422;-68
2022/05/23 03:37:50;;;;;;;3.20;3.00;;;;;;;;;;5036729;28;20531;-67
2022/05/23 03:40:16;;;;;;;3.77;3.57;;;;;;;;;;5036407;28;20823;-66
2022/05/23 03:42:42;;;;;;;4.73;3.47;;;;;;;;;;5036396;28;20402;-66
2022/05/23 03:45:09;;;;;;;3.83;3.63;;;;;;;;;;5036434;28;20474;-66
2022/05/23 03:47:35;;;;;;;3.90;3.70;;;;;;;;;;5036265;28;20411;-66
2022/05/23 03:50:01;;;;;;;4.37;3.37;;;;;;;;;;5036282;28;20418;-66
2022/05/23 03:52:27;;;;;;;33.17;28.60;;;;;;;;;;5036109;28;20874;-66
2022/05/23 03:54:53;;;;;;;7.13;4.23;;;;;;;;;;5036113;28;20415;-66
2022/05/23 03:57:19;;;;;;;4.33;3.53;;;;;;;;;;5036313;28;20408;-67
2022/05/23 03:59:45;;;;;;;5.57;3.50;;;;;;;;;;5036310;28;20423;-67
2022/05/23 04:02:12;;;;;;;3.73;3.43;;;;;;;;;;5035927;28;20493;-69
2022/05/23 04:04:38;;;;;;;4.10;3.70;;;;;;;;;;5035868;28;20459;-69
2022/05/23 04:07:05;;;;;;;8.80;3.50;;;;;;;;;;5036082;28;20474;-67
2022/05/23 04:09:32;;;;;;;15.53;5.33;;;;;;;;;;5035991;28;20399;-67
2022/05/23 04:11:58;;;;;;;5.00;4.40;;;;;;;;;;5036083;28;20424;-67
2022/05/23 04:14:25;;;;;;;8.80;4.00;;;;;;;;;;5035835;28;20399;-67
2022/05/23 04:16:51;;;;;;;7.03;4.30;;;;;;;;;;5035518;28;20408;-67
2022/05/23 04:19:17;;;;;;;4.20;3.80;;;;;;;;;;5035736;28;20408;-67
2022/05/23 04:21:44;;;;;;;4.00;3.70;;;;;;;;;;5035568;28;20406;-67
2022/05/23 04:24:11;;;;;;;110.37;89.90;;;;;;;;;;5035536;28;20502;-67
2022/05/23 04:26:37;;;;;;;8.27;7.10;;;;;;;;;;5035916;28;20403;-69
2022/05/23 04:29:04;;;;;;;7.40;6.70;;;;;;;;;;5035496;28;20412;-69
2022/05/23 04:31:30;;;;;;;6.60;6.10;;;;;;;;;;5035644;28;20446;-68
2022/05/23 04:36:40;;;;;;;8.13;3.90;;;;;;;;;;5035544;28;20399;-67
2022/05/23 04:39:07;;;;;;;4.33;4.13;;;;;;;;;;5035557;28;20757;-67
2022/05/23 04:41:33;;;;;;;3.87;3.63;;;;;;;;;;5035580;28;20406;-68
2022/05/23 04:43:59;;;;;;;3.67;3.50;;;;;;;;;;5035259;28;20493;-67
2022/05/23 04:46:25;;;;;;;3.90;3.80;;;;;;;;;;5035190;28;20435;-67
2022/05/23 04:51:36;;;;;;;4.30;4.00;;;;;;;;;;5035083;28;20948;-69
2022/05/23 04:54:02;;;;;;;4.30;3.33;;;;;;;;;;5035110;28;20443;-67
2022/05/23 04:56:29;;;;;;;4.00;3.80;;;;;;;;;;5034963;28;20395;-69
2022/05/23 04:58:55;;;;;;;4.33;3.90;;;;;;;;;;5035232;28;20505;-67
2022/05/23 05:01:21;;;;;;;9.40;4.90;;;;;;;;;;5034681;28;20455;-67
2022/05/23 05:03:48;;;;;;;4.53;4.23;;;;;;;;;;5034824;28;20423;-67
2022/05/23 05:06:14;;;;;;;4.77;4.17;;;;;;;;;;5034893;28;20438;-67
2022/05/23 05:08:40;;;;;;;4.23;4.03;;;;;;;;;;5034850;28;20519;-67
2022/05/23 05:11:06;;;;;;;6.57;3.87;;;;;;;;;;5034757;28;20407;-66
2022/05/23 05:13:39;;;;;;;6.57;4.90;;;;;;;;;;5034914;28;20745;-67
2022/05/23 05:16:06;;;;;;;4.60;4.20;;;;;;;;;;5034647;28;20898;-66
2022/05/23 05:18:32;;;;;;;4.20;4.00;;;;;;;;;;5034609;28;20409;-66
2022/05/23 05:21:03;;;;;;;3.90;3.80;;;;;;;;;;5034517;28;20523;-66
2022/05/23 05:23:29;;;;;;;4.93;4.67;;;;;;;;;;5034479;28;20400;-66
2022/05/23 05:25:55;;;;;;;5.73;5.20;;;;;;;;;;5016580;28;20550;-66
2022/05/23 05:28:21;;;;;;;7.43;4.93;;;;;;;;;;5033802;28;20450;-65
2022/05/23 05:30:51;;;;;;;4.57;4.20;;;;;;;;;;5034577;28;20408;-65
2022/05/23 05:33:19;;;;;;;5.10;4.70;;;;;;;;;;5034406;28;20411;-64
2022/05/23 05:35:51;;;;;;;5.07;4.77;;;;;;;;;;5034463;28;20479;-66
2022/05/23 05:38:22;;;;;;;9.10;4.50;;;;;;;;;;5016361;28;21003;-65
2022/05/23 05:40:51;;;;;;;4.43;4.20;;;;;;;;;;5034154;28;20502;-67
2022/05/23 05:43:19;;;;;;;4.87;4.60;;;;;;;;;;5034323;28;20413;-65
2022/05/23 05:45:50;;;;;;;5.03;4.63;;;;;;;;;;5034270;28;20477;-66
2022/05/23 05:48:16;;;;;;;4.93;4.57;;;;;;;;;;5033981;28;20496;-66
2022/05/23 05:50:42;;;;;;;4.17;3.87;;;;;;;;;;5033994;28;20426;-66
2022/05/23 05:53:10;;;;;;;4.93;4.50;;;;;;;;;;5033847;28;20488;-66
2022/05/23 05:55:37;;;;;;;3.47;3.30;;;;;;;;;;5033906;28;20734;-64
2022/05/23 05:58:03;;;;;;;4.00;3.80;;;;;;;;;;5033771;28;20491;-65
2022/05/23 06:00:30;;;;;;;5.27;4.97;;;;;;;;;;5033553;28;20464;-65
2022/05/23 06:02:56;;;;;;;4.83;4.23;;;;;;;;;;5033755;28;20425;-64
2022/05/23 06:05:22;;;;;;;4.90;4.50;;;;;;;;;;5033688;28;20571;-65
2022/05/23 06:13:18;;;;;;;7.40;4.13;;;;;;;;;;5033730;28;20429;-65
2022/05/23 06:15:45;;;;;;;4.50;4.20;;;;;;;;;;5033796;28;20496;-66
2022/05/23 06:18:11;;;;;;;4.03;3.83;;;;;;;;;;5033702;28;20393;-65
2022/05/23 06:20:37;;;;;;;5.37;4.27;;;;;;;;;;5033626;28;20399;-67
2022/05/23 06:23:04;;;;;;;4.00;3.80;;;;;;;;;;5033577;28;20893;-67
2022/05/23 06:25:30;;;;;;;4.07;3.67;;;;;;;;;;5033506;28;20489;-67
2022/05/23 06:27:56;;;;;;;3.73;3.13;;;;;;;;;;5033655;28;20440;-66
2022/05/23 06:30:22;;;;;;;5.47;3.87;;;;;;;;;;5015830;28;20435;-66
2022/05/23 06:32:48;;;;;;;3.80;3.50;;;;;;;;;;5033386;28;20892;-63
2022/05/23 06:35:14;;;;;;;4.00;3.80;;;;;;;;;;5033468;28;20501;-64
2022/05/23 06:37:41;;;;;;;5.60;3.97;;;;;;;;;;5033303;28;20463;-64
2022/05/23 06:40:08;;;;;;;3.83;3.63;;;;;;;;;;5033332;28;20406;-64
2022/05/23 06:42:35;;;;;;;4.93;3.77;;;;;;;;;;5037241;28;20400;-64
2022/05/23 06:45:02;;;;;;;4.83;4.43;;;;;;;;;;5037464;28;20968;-63
2022/05/23 06:47:28;;;;;;;5.57;5.20;;;;;;;;;;5037457;28;20976;-64
2022/05/23 06:49:54;;;;;;;8.73;6.30;;;;;;;;;;5037384;28;20397;-64
2022/05/23 06:52:20;;;;;;;6.70;5.60;;;;;;;;;;5037331;28;20486;-64
2022/05/23 06:54:46;;;;;;;14.40;6.17;;;;;;;;;;5037231;28;20437;-63
2022/05/23 06:57:12;;;;;;;14.53;5.60;;;;;;;;;;5019681;28;20765;-63
2022/05/23 06:59:39;;;;;;;6.20;5.60;;;;;;;;;;5037182;28;20412;-63
2022/05/23 07:02:07;;;;;;;7.80;5.87;;;;;;;;;;5036989;28;20961;-66
2022/05/23 07:12:48;;;;;;;12.83;4.70;;;;;;;;;;5036930;28;20462;-64
2022/05/23 07:15:14;;;;;;;9.73;5.27;;;;;;;;;;5036884;28;20441;-67
2022/05/23 07:17:40;;;;;;;5.33;4.10;;;;;;;;;;5036807;28;20406;-65
2022/05/23 07:20:06;;;;;;;5.80;4.50;;;;;;;;;;5036881;28;20399;-66
2022/05/23 07:22:34;;;;;;;12.10;5.33;;;;;;;;;;5036802;28;20498;-65
2022/05/23 07:25:01;;;;;;;9.30;4.80;;;;;;;;;;5036647;28;20471;-65
2022/05/23 07:27:27;;;;;;;8.13;4.13;;;;;;;;;;5036930;28;20403;-65
2022/05/23 07:29:53;;;;;;;16.97;4.30;;;;;;;;;;5036826;28;20416;-65
2022/05/23 07:32:19;;;;;;;9.07;4.57;;;;;;;;;;5036627;28;20404;-65
2022/05/23 07:34:45;;;;;;;7.00;4.23;;;;;;;;;;5036505;28;20875;-64
2022/05/23 07:37:11;;;;;;;4.37;3.50;;;;;;;;;;5036598;28;20401;-64
2022/05/23 07:39:41;;;;;;;4.53;4.07;;;;;;;;;;5036573;28;20446;-64
2022/05/23 07:42:07;;;;;;;4.73;3.70;;;;;;;;;;5036289;28;20759;-64
2022/05/23 07:44:33;;;;;;;7.47;4.30;;;;;;;;;;5036139;28;20555;-65
2022/05/23 07:47:05;;;;;;;4.37;3.90;;;;;;;;;;5036221;28;20410;-65
2022/05/23 07:49:31;;;;;;;4.40;4.00;;;;;;;;;;5036237;28;20401;-65
2022/05/23 07:51:57;;;;;;;6.43;3.50;;;;;;;;;;5035526;28;20810;-64
2022/05/23 08:02:41;;;;;;;8.93;4.03;;;;;;;;;;5035866;28;20552;-65
2022/05/23 08:05:08;;;;;;;7.03;4.13;;;;;;;;;;5035927;28;20460;-65
2022/05/23 08:07:34;;;;;;;3.97;3.53;;;;;;;;;;5035837;28;20391;-65
2022/05/23 08:10:00;;;;;;;11.33;4.30;;;;;;;;;;5035940;28;20401;-65
2022/05/23 08:12:29;;;;;;;4.50;4.13;;;;;;;;;;5036107;28;20401;-65
2022/05/23 08:14:56;;;;;;;4.33;3.97;;;;;;;;;;5035781;28;20393;-65
2022/05/23 08:17:22;;;;;;;16.13;4.60;;;;;;;;;;5036004;28;20409;-65
2022/05/23 08:19:49;;;;;;;7.60;4.13;;;;;;;;;;5035646;28;20396;-65
2022/05/23 08:22:15;;;;;;;4.00;3.80;;;;;;;;;;5035552;28;20893;-66
2022/05/23 08:24:42;;;;;;;8.93;4.27;;;;;;;;;;5035563;28;20456;-64
2022/05/23 08:27:08;;;;;;;5.10;4.27;;;;;;;;;;5035604;28;20803;-65
2022/05/23 08:29:35;;;;;;;8.13;4.70;;;;;;;;;;5035498;28;20397;-65
2022/05/23 08:32:02;;;;;;;5.70;4.87;;;;;;;;;;5035676;28;20436;-65
2022/05/23 08:34:35;;;;;;;4.20;4.00;;;;;;;;;;5017751;28;20421;-65
2022/05/23 08:37:02;;;;;;;7.07;4.37;;;;;;;;;;5035373;28;20413;-66
2022/05/23 08:39:28;;;;;;;4.67;4.23;;;;;;;;;;5035397;28;20410;-66
2022/05/23 08:41:54;;;;;;;5.00;4.30;;;;;;;;;;5017484;28;20469;-65
2022/05/23 08:44:43;;;;;;;6.30;4.37;;;;;;;;;;5035154;28;20986;-64
2022/05/23 08:47:14;;;;;;;10.23;5.60;;;;;;;;;;5035409;28;20405;-64
2022/05/23 08:49:46;;;;;;;5.33;3.83;;;;;;;;;;5035218;28;20413;-66
2022/05/23 08:52:20;;;;;;;4.90;4.50;;;;;;;;;;5035084;28;20392;-65
2022/05/23 08:54:50;;;;;;;5.20;4.43;;;;;;;;;;5035020;28;20410;-64
2022/05/23 08:57:35;;;;;;;15.53;4.63;;;;;;;;;;5034955;28;20394;-65
2022/05/23 09:00:05;;;;;;;4.07;3.93;;;;;;;;;;5034943;28;20394;-66
2022/05/23 09:02:36;;;;;;;7.20;5.30;;;;;;;;;;5034563;28;20462;-65
2022/05/23 09:05:09;;;;;;;5.30;4.90;;;;;;;;;;5034024;28;20979;-65
2022/05/23 09:07:47;;;;;;;4.77;4.47;;;;;;;;;;5034747;28;20760;-66
2022/05/23 09:10:22;;;;;;;4.83;4.53;;;;;;;;;;5035297;28;20410;-65
2022/05/23 09:12:50;;;;;;;6.37;4.53;;;;;;;;;;5034794;28;20385;-66
2022/05/23 09:15:16;;;;;;;5.53;5.00;;;;;;;;;;5034791;28;20420;-64
2022/05/23 09:17:44;;;;;;;9.80;5.00;;;;;;;;;;5034720;28;20391;-64
2022/05/23 09:20:12;;;;;;;5.73;4.80;;;;;;;;;;5034588;28;20407;-65
2022/05/23 09:22:56;;;;;;;15.90;5.43;;;;;;;;;;5034240;28;20437;-65
2022/05/23 09:25:27;;;;;;;7.70;4.93;;;;;;;;;;5034444;28;20486;-64
2022/05/23 09:28:11;;;;;;;7.47;5.47;;;;;;;;;;5034509;28;20405;-65
2022/05/23 09:30:46;;;;;;;4.90;4.53;;;;;;;;;;5034334;28;20404;-64
2022/05/23 09:33:19;;;;;;;5.83;4.90;;;;;;;;;;5034302;28;20930;-65
2022/05/23 09:35:45;;;;;;;8.33;5.17;;;;;;;;;;5034508;28;20539;-65
2022/05/23 09:38:22;;;;;;;11.10;4.90;;;;;;;;;;5034481;28;20453;-64
2022/05/23 09:40:49;;;;;;;5.20;4.70;;;;;;;;;;5034419;28;20464;-65
2022/05/23 09:49:00;;;;;;;9.90;6.10;;;;;;;;;;5034376;28;20409;-65
2022/05/23 09:51:26;;;;;;;8.67;6.50;;;;;;;;;;5034099;28;20464;-65
2022/05/23 09:53:53;;;;;;;7.43;6.73;;;;;;;;;;5034049;28;20406;-66
2022/05/23 09:56:31;;;;;;;10.43;7.57;;;;;;;;;;5033945;28;20432;-65
2022/05/23 09:58:59;;;;;;;12.10;8.20;;;;;;;;;;5033899;28;20819;-65
2022/05/23 10:01:27;;;;;;;15.77;9.60;;;;;;;;;;5033891;28;20809;-65
2022/05/23 10:03:53;;;;;;;12.20;9.20;;;;;;;;;;5034098;28;20445;-65
2022/05/23 10:06:20;;;;;;;14.07;8.60;;;;;;;;;;5033758;28;20410;-65
2022/05/23 10:08:48;;;;;;;14.53;9.53;;;;;;;;;;5033787;28;20392;-65
2022/05/23 10:11:34;;;;;;;13.07;9.23;;;;;;;;;;5033843;28;20883;-64
2022/05/23 10:14:03;;;;;;;22.13;10.23;;;;;;;;;;5033773;28;20407;-65
2022/05/23 10:16:54;;;;;;;17.90;9.73;;;;;;;;;;5033528;28;20393;-66
2022/05/23 10:19:39;;;;;;;23.70;10.53;;;;;;;;;;5028612;28;20433;-66
2022/05/23 10:22:05;;;;;;;12.43;10.60;;;;;;;;;;5033561;28;20745;-65
2022/05/23 10:24:33;;;;;;;25.13;10.20;;;;;;;;;;5033727;28;20494;-65
2022/05/23 10:27:04;;;;;;;13.10;11.50;;;;;;;;;;5033763;28;20422;-65
2022/05/23 10:29:30;;;;;;;23.73;11.87;;;;;;;;;;5033544;28;20480;-65
2022/05/23 10:32:06;;;;;;;14.50;11.23;;;;;;;;;;5033440;28;20507;-65
2022/05/23 10:34:40;;;;;;;23.20;12.33;;;;;;;;;;5033448;28;20400;-65
2022/05/23 10:37:10;;;;;;;16.40;11.73;;;;;;;;;;5033725;28;20405;-65
2022/05/23 10:42:23;;;;;;;14.17;11.90;;;;;;;;;;5033206;28;20753;-65
2022/05/23 10:45:02;;;;;;;15.50;11.33;;;;;;;;;;5033340;28;20470;-65
2022/05/23 10:47:34;;;;;;;14.93;11.63;;;;;;;;;;5033231;28;20401;-65
2022/05/23 10:50:19;;;;;;;16.90;12.90;;;;;;;;;;5033391;28;20394;-65
2022/05/23 10:53:01;;;;;;;25.03;14.03;;;;;;;;;;5033259;28;20401;-66
2022/05/23 10:55:30;;;;;;;18.70;12.53;;;;;;;;;;5033184;28;20892;-65
2022/05/23 10:58:02;;;;;;;18.80;12.87;;;;;;;;;;5033546;28;20733;-65
2022/05/23 11:00:44;;;;;;;25.53;14.00;;;;;;;;;;5033416;28;20403;-65
2022/05/23 11:03:19;;;;;;;20.07;12.50;;;;;;;;;;5033188;28;20908;-65
2022/05/23 11:05:52;;;;;;;16.37;12.20;;;;;;;;;;5033101;28;20466;-65
2022/05/23 11:08:22;;;;;;;23.40;14.50;;;;;;;;;;5033140;28;20400;-65
2022/05/23 11:10:49;;;;;;;18.30;13.30;;;;;;;;;;5033028;28;20754;-65
2022/05/23 11:13:20;;;;;;;14.80;12.50;;;;;;;;;;5033021;28;20881;-65
2022/05/23 11:16:05;;;;;;;20.63;11.13;;;;;;;;;;5033093;28;20488;-66
2022/05/23 11:18:51;;;;;;;17.93;12.30;;;;;;;;;;5032945;28;20404;-66
2022/05/23 11:21:20;;;;;;;16.33;11.33;;;;;;;;;;5033030;28;20909;-65
2022/05/23 11:23:50;;;;;;;15.93;10.40;;;;;;;;;;5033015;28;20765;-66
2022/05/23 11:26:20;;;;;;;12.30;9.87;;;;;;;;;;5033011;28;20499;-67
2022/05/23 11:34:37;;;;;;;11.10;9.93;;;;;;;;;;5036626;28;20443;-66
2022/05/23 11:37:09;;;;;;;16.80;9.90;;;;;;;;;;5036696;28;20419;-65
2022/05/23 11:39:44;;;;;;;11.60;9.50;;;;;;;;;;5036492;28;20405;-66
2022/05/23 11:42:12;;;;;;;13.93;10.00;;;;;;;;;;5036666;28;20412;-65
2022/05/23 11:44:44;;;;;;;13.70;10.57;;;;;;;;;;5036499;28;20478;-66
2022/05/23 11:47:21;;;;;;;11.33;9.90;;;;;;;;;;5036617;28;20389;-65
2022/05/23 11:50:00;;;;;;;10.37;9.27;;;;;;;;;;5036396;28;20407;-65
2022/05/23 11:52:31;;;;;;;13.93;9.20;;;;;;;;;;5036258;28;20485;-65
2022/05/23 11:54:57;;;;;;;11.13;9.23;;;;;;;;;;5036254;28;20411;-65
2022/05/23 11:57:35;;;;;;;14.50;9.00;;;;;;;;;;5036178;28;20411;-65
2022/05/23 12:00:05;;;;;;;10.40;9.13;;;;;;;;;;5036171;28;20399;-65
2022/05/23 12:02:33;;;;;;;14.20;8.80;;;;;;;;;;5035871;28;20473;-66
2022/05/23 12:04:59;;;;;;;13.20;8.33;;;;;;;;;;5036009;28;20470;-64
2022/05/23 12:07:31;;;;;;;10.20;8.00;;;;;;;;;;5035977;28;20410;-65
2022/05/23 12:10:16;;;;;;;9.57;8.50;;;;;;;;;;5036220;28;20868;-65
2022/05/23 12:12:56;;;;;;;10.70;7.80;;;;;;;;;;5035853;28;20391;-66
2022/05/23 12:15:40;;;;;;;8.00;7.30;;;;;;;;;;5035842;28;20409;-66
2022/05/23 12:18:06;;;;;;;9.40;6.93;;;;;;;;;;5035812;28;20415;-66
2022/05/23 12:20:42;;;;;;;7.00;6.40;;;;;;;;;;5035726;28;20426;-66
2022/05/23 12:23:10;;;;;;;9.47;6.40;;;;;;;;;;5035658;28;20889;-66
2022/05/23 12:25:36;;;;;;;6.43;5.93;;;;;;;;;;5035561;28;20894;-67
2022/05/23 12:28:10;;;;;;;6.00;5.50;;;;;;;;;;5035458;28;20422;-66
2022/05/23 12:31:02;;;;;;;10.17;5.97;;;;;;;;;;5035223;28;20897;-66
2022/05/23 12:33:28;;;;;;;6.10;5.50;;;;;;;;;;5035027;28;20521;-65
2022/05/23 12:35:54;;;;;;;6.57;5.03;;;;;;;;;;5035403;28;20416;-66
2022/05/23 12:38:36;;;;;;;10.00;5.60;;;;;;;;;;5035451;28;20929;-67
2022/05/23 12:41:06;;;;;;;5.20;4.80;;;;;;;;;;5035412;28;20827;-67
2022/05/23 12:43:35;;;;;;;5.73;4.40;;;;;;;;;;5034959;28;20941;-65
2022/05/23 12:46:10;;;;;;;6.07;5.37;;;;;;;;;;5034909;28;20523;-65
2022/05/23 12:48:49;;;;;;;6.73;4.40;;;;;;;;;;5034980;28;20460;-66
2022/05/23 12:51:21;;;;;;;5.63;4.17;;;;;;;;;;5035074;28;20407;-66
2022/05/23 12:54:07;;;;;;;9.40;4.23;;;;;;;;;;5034979;28;20767;-65
2022/05/23 12:56:51;;;;;;;6.80;4.23;;;;;;;;;;5014342;28;21034;-66
2022/05/23 12:59:26;;;;;;;6.40;4.30;;;;;;;;;;5035123;28;20464;-67
2022/05/23 13:01:59;;;;;;;4.83;3.20;;;;;;;;;;5034812;28;20470;-68
2022/05/23 13:04:29;;;;;;;4.10;3.10;;;;;;;;;;5034845;28;20546;-68
2022/05/23 13:07:13;;;;;;;3.70;3.27;;;;;;;;;;5034691;28;20406;-67
2022/05/23 13:09:39;;;;;;;3.90;3.20;;;;;;;;;;5034548;28;20478;-66
2022/05/23 13:12:09;;;;;;;3.17;2.93;;;;;;;;;;5034441;28;20895;-65
2022/05/23 13:14:52;;;;;;;9.03;3.53;;;;;;;;;;5034816;28;20419;-67
2022/05/23 13:17:31;;;;;;;3.97;3.20;;;;;;;;;;5034649;28;20451;-65
2022/05/23 13:22:42;;;;;;;3.37;3.17;;;;;;;;;;5034566;28;20395;-65
2022/05/23 13:25:08;;;;;;;17.63;3.83;;;;;;;;;;5034310;28;20879;-66
2022/05/23 13:27:37;;;;;;;7.33;3.70;;;;;;;;;;5034503;28;20392;-65
2022/05/23 13:30:08;;;;;;;5.80;3.30;;;;;;;;;;5034458;28;20396;-65
2022/05/23 13:32:35;;;;;;;9.90;3.50;;;;;;;;;;5034411;28;20414;-65
2022/05/23 13:35:01;;;;;;;7.10;3.40;;;;;;;;;;5034529;28;20793;-64
2022/05/23 13:37:29;;;;;;;9.20;3.93;;;;;;;;;;5034389;28;20469;-64
2022/05/23 13:39:56;;;;;;;5.87;3.77;;;;;;;;;;5034036;28;20489;-65
2022/05/23 13:42:23;;;;;;;8.60;4.10;;;;;;;;;;5034097;28;20396;-64
2022/05/23 13:44:50;;;;;;;4.23;3.73;;;;;;;;;;5034223;28;20455;-64
2022/05/23 13:47:20;;;;;;;3.80;3.47;;;;;;;;;;5034136;28;20458;-65
2022/05/23 13:49:50;;;;;;;3.30;2.93;;;;;;;;;;5033704;28;20407;-65
2022/05/23 13:52:17;;;;;;;6.03;2.83;;;;;;;;;;5034163;28;20422;-65
2022/05/23 13:54:52;;;;;;;14.67;3.07;;;;;;;;;;5033842;28;20396;-65
2022/05/23 13:57:29;;;;;;;11.73;3.00;;;;;;;;;;5033866;28;20799;-65
2022/05/23 14:00:14;;;;;;;6.30;2.90;;;;;;;;;;5033819;28;20398;-65
2022/05/23 14:02:46;;;;;;;8.27;2.87;;;;;;;;;;5033699;28;20468;-64
2022/05/23 14:05:12;;;;;;;5.50;2.93;;;;;;;;;;5033901;28;20465;-67
2022/05/23 14:07:40;;;;;;;7.10;3.00;;;;;;;;;;5033815;28;20807;-67
2022/05/23 14:10:07;;;;;;;4.67;3.00;;;;;;;;;;5033719;28;20410;-69
2022/05/23 14:12:34;;;;;;;6.87;2.90;;;;;;;;;;5033631;28;20396;-74
2022/05/23 14:15:05;;;;;;;11.43;3.50;;;;;;;;;;5033741;28;20946;-66
2022/05/23 14:17:34;;;;;;;3.43;3.03;;;;;;;;;;5033616;28;20465;-65
2022/05/23 14:20:12;;;;;;;5.00;2.90;;;;;;;;;;5033815;28;20417;-64
2022/05/23 14:22:38;;;;;;;3.43;2.70;;;;;;;;;;5033472;28;20478;-65
2022/05/23 14:25:23;;;;;;;3.97;3.30;;;;;;;;;;5033364;28;21023;-69
2022/05/23 14:27:53;;;;;;;5.07;3.17;;;;;;;;;;5033504;28;20399;-65
2022/05/23 14:30:27;;;;;;;10.90;3.30;;;;;;;;;;5033426;28;20414;-65
2022/05/23 14:32:58;;;;;;;3.00;2.77;;;;;;;;;;5033495;28;20404;-65
2022/05/23 14:35:26;;;;;;;3.17;2.87;;;;;;;;;;5033691;28;20415;-65
2022/05/23 14:37:53;;;;;;;7.17;2.60;;;;;;;;;;5033630;28;20422;-66
2022/05/23 14:40:39;;;;;;;3.70;2.60;;;;;;;;;;5033436;28;20462;-65
2022/05/23 14:43:11;;;;;;;4.60;2.33;;;;;;;;;;5033362;28;20402;-66
2022/05/23 14:45:57;;;;;;;6.33;2.60;;;;;;;;;;5033414;28;20504;-65
2022/05/23 14:48:30;;;;;;;2.47;2.37;;;;;;;;;;5026158;28;20424;-67
2022/05/23 14:50:59;;;;;;;5.57;3.03;;;;;;;;;;5033360;28;20407;-66
2022/05/23 14:56:11;;;;;;;4.60;2.60;;;;;;;;;;5033289;28;20395;-66
2022/05/23 15:01:25;;;;;;;6.73;2.47;;;;;;;;;;5033211;28;20482;-65
2022/05/23 15:03:52;;;;;;;3.00;2.70;;;;;;;;;;5037384;28;20406;-65
2022/05/23 15:06:19;;;;;;;8.63;2.40;;;;;;;;;;5036975;28;20463;-64
2022/05/23 15:08:45;;;;;;;2.53;2.20;;;;;;;;;;5037038;28;20494;-65
2022/05/23 15:11:14;;;;;;;2.13;2.03;;;;;;;;;;5036995;28;20398;-65
2022/05/23 15:13:40;;;;;;;5.33;2.00;;;;;;;;;;5036932;28;20886;-65
2022/05/23 15:16:06;;;;;;;6.33;1.73;;;;;;;;;;5036933;28;20408;-66
2022/05/23 15:18:33;;;;;;;2.80;1.73;;;;;;;;;;5036738;28;20403;-65
2022/05/23 15:21:00;;;;;;;13.50;2.20;;;;;;;;;;5037118;28;20415;-65
2022/05/23 15:23:26;;;;;;;1.87;1.70;;;;;;;;;;5036764;28;20408;-65
2022/05/23 15:25:52;;;;;;;5.90;2.00;;;;;;;;;;5036726;28;20466;-65
2022/05/23 15:28:19;;;;;;;1.73;1.67;;;;;;;;;;5036716;28;20432;-66
2022/05/23 15:30:45;;;;;;;3.67;2.03;;;;;;;;;;5036619;28;20408;-64
2022/05/23 15:33:14;;;;;;;3.03;1.93;;;;;;;;;;5036676;28;20403;-65
2022/05/23 15:35:39;;;;;;;5.70;1.60;;;;;;;;;;5036621;28;20413;-64
2022/05/23 15:38:06;;;;;;;3.70;1.87;;;;;;;;;;5036535;28;20410;-64
2022/05/23 15:40:35;;;;;;;2.30;1.93;;;;;;;;;;5036532;28;20778;-64
2022/05/23 15:43:02;;;;;;;3.03;1.73;;;;;;;;;;5036492;28;20867;-64
2022/05/23 15:45:29;;;;;;;3.93;1.70;;;;;;;;;;5036369;28;20469;-64
2022/05/23 15:48:02;;;;;;;7.03;2.00;;;;;;;;;;5036630;28;20437;-64
2022/05/23 15:50:28;;;;;;;4.43;2.10;;;;;;;;;;5036271;28;20410;-65
2022/05/23 15:53:01;;;;;;;15.63;2.43;;;;;;;;;;5036264;28;20400;-65
2022/05/23 15:55:31;;;;;;;3.63;1.97;;;;;;;;;;5036039;28;20967;-65